sensor_id;sensor_type;location;lat;lon;timestamp;pressure;altitude;pressure_sealevel;temperature;humidity
54822;BME280;41299;43.546;16.426;2022-10-16T00:00:29;102094.56;;;15.33;100.00
54822;BME280;41299;43.546;16.426;2022-10-16T00:02:55;102105.78;;;15.29;100.00
54822;BME280;41299;43.546;16.426;2022-10-16T00:05:20;102099.69;;;15.25;100.00
54822;BME280;41299;43.546;16.426;2022-10-16T00:07:45;102102.25;;;15.22;100.00
54822;BME280;41299;43.546;16.426;2022-10-16T00:10:11;102106.59;;;15.23;100.00
54822;BME280;41299;43.546;16.426;2022-10-16T00:12:36;102110.88;;;15.18;100.00
54822;BME280;41299;43.546;16.426;2022-10-16T00:15:01;102109.13;;;15.14;100.00
54822;BME280;41299;43.546;16.426;2022-10-16T00:17:26;102103.94;;;15.17;100.00
54822;BME280;41299;43.546;16.426;2022-10-16T00:19:52;102103.06;;;15.15;100.00
54822;BME280;41299;43.546;16.426;2022-10-16T00:22:17;102099.56;;;15.10;100.00
54822;BME280;41299;43.546;16.426;2022-10-16T00:24:42;102105.63;;;15.12;100.00
54822;BME280;41299;43.546;16.426;2022-10-16T00:27:07;102097.91;;;15.20;100.00
54822;BME280;41299;43.546;16.426;2022-10-16T00:29:33;102094.38;;;15.10;100.00
54822;BME280;41299;43.546;16.426;2022-10-16T00:31:58;102097.84;;;15.10;100.00
54822;BME280;41299;43.546;16.426;2022-10-16T00:34:23;102090.84;;;15.02;100.00
54822;BME280;41299;43.546;16.426;2022-10-16T00:36:48;102095.09;;;14.93;100.00
54822;BME280;41299;43.546;16.426;2022-10-16T00:39:14;102091.63;;;14.91;100.00
54822;BME280;41299;43.546;16.426;2022-10-16T00:41:39;102089.94;;;14.98;100.00
54822;BME280;41299;43.546;16.426;2022-10-16T00:44:42;102092.59;;;15.06;100.00
54822;BME280;41299;43.546;16.426;2022-10-16T00:46:50;102097.81;;;15.07;100.00
54822;BME280;41299;43.546;16.426;2022-10-16T00:49:16;102091.75;;;15.05;100.00
54822;BME280;41299;43.546;16.426;2022-10-16T00:51:43;102089.09;;;15.01;100.00
54822;BME280;41299;43.546;16.426;2022-10-16T00:56:44;102086.53;;;15.07;100.00
54822;BME280;41299;43.546;16.426;2022-10-16T00:59:18;102090.84;;;15.00;100.00
54822;BME280;41299;43.546;16.426;2022-10-16T01:01:44;102093.31;;;14.89;100.00
54822;BME280;41299;43.546;16.426;2022-10-16T01:04:09;102092.47;;;14.92;100.00
54822;BME280;41299;43.546;16.426;2022-10-16T01:06:58;102097.59;;;14.85;100.00
54822;BME280;41299;43.546;16.426;2022-10-16T01:12:07;102100.22;;;14.87;100.00
54822;BME280;41299;43.546;16.426;2022-10-16T01:17:19;102109.66;;;14.77;100.00
54822;BME280;41299;43.546;16.426;2022-10-16T01:22:20;102112.09;;;14.65;100.00
54822;BME280;41299;43.546;16.426;2022-10-16T01:24:49;102112.16;;;14.71;100.00
54822;BME280;41299;43.546;16.426;2022-10-16T01:32:36;102112.16;;;14.72;100.00
54822;BME280;41299;43.546;16.426;2022-10-16T01:37:41;102110.44;;;14.71;100.00
54822;BME280;41299;43.546;16.426;2022-10-16T01:40:11;102112.16;;;14.69;100.00
54822;BME280;41299;43.546;16.426;2022-10-16T01:42:39;102120.81;;;14.71;100.00
54822;BME280;41299;43.546;16.426;2022-10-16T01:45:06;102114.63;;;14.57;100.00
54822;BME280;41299;43.546;16.426;2022-10-16T01:47:32;102116.28;;;14.52;100.00
54822;BME280;41299;43.546;16.426;2022-10-16T01:49:58;102111.97;;;14.54;100.00
54822;BME280;41299;43.546;16.426;2022-10-16T01:52:25;102113.72;;;14.56;100.00
54822;BME280;41299;43.546;16.426;2022-10-16T01:54:52;102106.00;;;14.59;100.00
54822;BME280;41299;43.546;16.426;2022-10-16T01:57:18;102111.97;;;14.51;100.00
54822;BME280;41299;43.546;16.426;2022-10-16T01:59:46;102113.72;;;14.55;100.00
54822;BME280;41299;43.546;16.426;2022-10-16T02:02:13;102109.34;;;14.51;100.00
54822;BME280;41299;43.546;16.426;2022-10-16T02:04:47;102106.78;;;14.54;100.00
54822;BME280;41299;43.546;16.426;2022-10-16T02:07:14;102116.31;;;14.55;100.00
54822;BME280;41299;43.546;16.426;2022-10-16T02:09:40;102118.06;;;14.56;100.00
54822;BME280;41299;43.546;16.426;2022-10-16T02:12:07;102124.94;;;14.52;100.00
54822;BME280;41299;43.546;16.426;2022-10-16T02:14:35;102117.06;;;14.43;100.00
54822;BME280;41299;43.546;16.426;2022-10-16T02:17:09;102122.31;;;14.49;100.00
54822;BME280;41299;43.546;16.426;2022-10-16T02:19:34;102125.75;;;14.46;100.00
54822;BME280;41299;43.546;16.426;2022-10-16T02:22:01;102125.69;;;14.40;100.00
54822;BME280;41299;43.546;16.426;2022-10-16T02:24:38;102123.88;;;14.36;100.00
54822;BME280;41299;43.546;16.426;2022-10-16T02:27:11;102128.22;;;14.36;100.00
54822;BME280;41299;43.546;16.426;2022-10-16T02:29:42;102123.75;;;14.27;100.00
54822;BME280;41299;43.546;16.426;2022-10-16T02:32:10;102130.66;;;14.25;100.00
54822;BME280;41299;43.546;16.426;2022-10-16T02:34:37;102132.38;;;14.23;100.00
54822;BME280;41299;43.546;16.426;2022-10-16T02:37:04;102131.44;;;14.17;100.00
54822;BME280;41299;43.546;16.426;2022-10-16T02:39:31;102128.03;;;14.23;100.00
54822;BME280;41299;43.546;16.426;2022-10-16T02:41:57;102136.75;;;14.28;100.00
54822;BME280;41299;43.546;16.426;2022-10-16T02:44:22;102137.75;;;14.38;100.00
54822;BME280;41299;43.546;16.426;2022-10-16T02:46:48;102135.13;;;14.35;100.00
54822;BME280;41299;43.546;16.426;2022-10-16T02:49:13;102140.09;;;14.18;100.00
54822;BME280;41299;43.546;16.426;2022-10-16T02:51:38;102140.91;;;14.14;100.00
54822;BME280;41299;43.546;16.426;2022-10-16T02:54:04;102145.38;;;14.24;100.00
54822;BME280;41299;43.546;16.426;2022-10-16T02:56:29;102141.97;;;14.30;100.00
54822;BME280;41299;43.546;16.426;2022-10-16T02:58:55;102139.44;;;14.33;100.00
54822;BME280;41299;43.546;16.426;2022-10-16T03:01:21;102144.66;;;14.36;100.00
54822;BME280;41299;43.546;16.426;2022-10-16T03:03:46;102146.28;;;14.28;100.00
54822;BME280;41299;43.546;16.426;2022-10-16T03:06:11;102151.44;;;14.25;100.00
54822;BME280;41299;43.546;16.426;2022-10-16T03:08:37;102145.41;;;14.27;100.00
54822;BME280;41299;43.546;16.426;2022-10-16T03:11:02;102149.78;;;14.31;100.00
54822;BME280;41299;43.546;16.426;2022-10-16T03:13:27;102151.56;;;14.37;100.00
54822;BME280;41299;43.546;16.426;2022-10-16T03:15:52;102160.28;;;14.39;100.00
54822;BME280;41299;43.546;16.426;2022-10-16T03:18:18;102156.81;;;14.40;100.00
54822;BME280;41299;43.546;16.426;2022-10-16T03:20:43;102157.69;;;14.42;100.00
54822;BME280;41299;43.546;16.426;2022-10-16T03:23:08;102154.25;;;14.42;100.00
54822;BME280;41299;43.546;16.426;2022-10-16T03:25:34;102158.44;;;14.32;100.00
54822;BME280;41299;43.546;16.426;2022-10-16T03:27:59;102157.53;;;14.28;100.00
54822;BME280;41299;43.546;16.426;2022-10-16T03:30:24;102155.75;;;14.26;100.00
54822;BME280;41299;43.546;16.426;2022-10-16T03:32:49;102161.81;;;14.25;100.00
54822;BME280;41299;43.546;16.426;2022-10-16T03:35:19;102166.09;;;14.21;100.00
54822;BME280;41299;43.546;16.426;2022-10-16T03:37:44;102172.97;;;14.17;100.00
54822;BME280;41299;43.546;16.426;2022-10-16T03:40:09;102177.13;;;14.06;100.00
54822;BME280;41299;43.546;16.426;2022-10-16T03:42:34;102175.38;;;14.05;100.00
54822;BME280;41299;43.546;16.426;2022-10-16T03:45:00;102181.53;;;14.10;100.00
54822;BME280;41299;43.546;16.426;2022-10-16T03:47:25;102170.19;;;14.06;100.00
54822;BME280;41299;43.546;16.426;2022-10-16T03:49:50;102177.91;;;14.00;100.00
54822;BME280;41299;43.546;16.426;2022-10-16T03:52:16;102171.03;;;14.02;100.00
54822;BME280;41299;43.546;16.426;2022-10-16T03:54:41;102175.47;;;14.11;100.00
54822;BME280;41299;43.546;16.426;2022-10-16T03:57:07;102183.28;;;14.14;100.00
54822;BME280;41299;43.546;16.426;2022-10-16T03:59:32;102185.81;;;14.10;100.00
54822;BME280;41299;43.546;16.426;2022-10-16T04:01:57;102189.88;;;13.90;100.00
54822;BME280;41299;43.546;16.426;2022-10-16T04:04:22;102190.78;;;13.94;100.00
54822;BME280;41299;43.546;16.426;2022-10-16T04:06:48;102183.16;;;14.05;100.00
54822;BME280;41299;43.546;16.426;2022-10-16T04:09:13;102193.47;;;14.00;100.00
54822;BME280;41299;43.546;16.426;2022-10-16T04:11:38;102189.06;;;13.95;100.00
54822;BME280;41299;43.546;16.426;2022-10-16T04:14:04;102194.88;;;13.78;100.00
54822;BME280;41299;43.546;16.426;2022-10-16T04:16:29;102198.00;;;13.57;100.00
54822;BME280;41299;43.546;16.426;2022-10-16T04:18:54;102206.44;;;13.46;100.00
54822;BME280;41299;43.546;16.426;2022-10-16T04:21:20;102202.34;;;13.59;100.00
54822;BME280;41299;43.546;16.426;2022-10-16T04:23:45;102205.97;;;13.69;100.00
54822;BME280;41299;43.546;16.426;2022-10-16T04:26:10;102213.78;;;13.71;100.00
54822;BME280;41299;43.546;16.426;2022-10-16T04:28:36;102210.47;;;13.81;100.00
54822;BME280;41299;43.546;16.426;2022-10-16T04:31:03;102214.91;;;13.88;100.00
54822;BME280;41299;43.546;16.426;2022-10-16T04:33:28;102220.06;;;13.87;100.00
54822;BME280;41299;43.546;16.426;2022-10-16T04:36:00;102216.50;;;13.80;100.00
54822;BME280;41299;43.546;16.426;2022-10-16T04:38:26;102216.41;;;13.74;100.00
54822;BME280;41299;43.546;16.426;2022-10-16T04:40:51;102220.78;;;13.78;100.00
54822;BME280;41299;43.546;16.426;2022-10-16T04:43:16;102225.91;;;13.75;100.00
54822;BME280;41299;43.546;16.426;2022-10-16T04:45:42;102216.47;;;13.77;100.00
54822;BME280;41299;43.546;16.426;2022-10-16T04:48:07;102226.84;;;13.77;100.00
54822;BME280;41299;43.546;16.426;2022-10-16T04:50:32;102225.22;;;13.85;100.00
54822;BME280;41299;43.546;16.426;2022-10-16T04:52:58;102228.56;;;13.78;100.00
54822;BME280;41299;43.546;16.426;2022-10-16T04:55:23;102226.84;;;13.77;100.00
54822;BME280;41299;43.546;16.426;2022-10-16T04:57:48;102220.84;;;13.83;100.00
54822;BME280;41299;43.546;16.426;2022-10-16T05:00:13;102221.78;;;13.86;100.00
54822;BME280;41299;43.546;16.426;2022-10-16T05:02:39;102224.38;;;13.86;100.00
54822;BME280;41299;43.546;16.426;2022-10-16T05:05:04;102226.84;;;13.77;100.00
54822;BME280;41299;43.546;16.426;2022-10-16T05:07:30;102226.75;;;13.71;100.00
54822;BME280;41299;43.546;16.426;2022-10-16T05:09:55;102225.81;;;13.69;100.00
54822;BME280;41299;43.546;16.426;2022-10-16T05:12:20;102232.75;;;13.68;100.00
54822;BME280;41299;43.546;16.426;2022-10-16T05:14:46;102236.03;;;13.58;100.00
54822;BME280;41299;43.546;16.426;2022-10-16T05:17:11;102235.09;;;13.54;100.00
54822;BME280;41299;43.546;16.426;2022-10-16T05:19:36;102237.75;;;13.59;100.00
54822;BME280;41299;43.546;16.426;2022-10-16T05:22:01;102238.69;;;13.62;100.00
54822;BME280;41299;43.546;16.426;2022-10-16T05:24:27;102249.16;;;13.69;100.00
54822;BME280;41299;43.546;16.426;2022-10-16T05:26:52;102246.66;;;13.75;100.00
54822;BME280;41299;43.546;16.426;2022-10-16T05:29:17;102246.78;;;13.83;100.00
54822;BME280;41299;43.546;16.426;2022-10-16T05:31:43;102249.41;;;13.84;100.00
54822;BME280;41299;43.546;16.426;2022-10-16T05:34:08;102242.22;;;13.68;100.00
54822;BME280;41299;43.546;16.426;2022-10-16T05:36:33;102249.97;;;13.64;100.00
54822;BME280;41299;43.546;16.426;2022-10-16T05:38:59;102245.66;;;13.67;100.00
54822;BME280;41299;43.546;16.426;2022-10-16T05:41:24;102241.38;;;13.67;100.00
54822;BME280;41299;43.546;16.426;2022-10-16T05:43:51;102254.19;;;13.61;100.00
54822;BME280;41299;43.546;16.426;2022-10-16T05:46:16;102253.34;;;13.60;100.00
54822;BME280;41299;43.546;16.426;2022-10-16T05:48:42;102259.53;;;13.69;100.00
54822;BME280;41299;43.546;16.426;2022-10-16T05:51:08;102252.66;;;13.72;100.00
54822;BME280;41299;43.546;16.426;2022-10-16T05:53:34;102260.41;;;13.69;100.00
54822;BME280;41299;43.546;16.426;2022-10-16T05:56:00;102257.06;;;13.76;100.00
54822;BME280;41299;43.546;16.426;2022-10-16T05:58:28;102260.66;;;13.85;100.00
54822;BME280;41299;43.546;16.426;2022-10-16T06:00:57;102265.81;;;13.83;100.00
54822;BME280;41299;43.546;16.426;2022-10-16T06:03:23;102270.09;;;13.81;100.00
54822;BME280;41299;43.546;16.426;2022-10-16T06:05:48;102271.03;;;13.85;100.00
54822;BME280;41299;43.546;16.426;2022-10-16T06:08:14;102274.50;;;13.85;100.00
54822;BME280;41299;43.546;16.426;2022-10-16T06:10:39;102278.16;;;13.98;100.00
54822;BME280;41299;43.546;16.426;2022-10-16T06:13:04;102279.09;;;14.02;100.00
54822;BME280;41299;43.546;16.426;2022-10-16T06:15:30;102281.75;;;14.05;100.00
54822;BME280;41299;43.546;16.426;2022-10-16T06:17:55;102288.69;;;14.09;100.00
54822;BME280;41299;43.546;16.426;2022-10-16T06:20:20;102280.13;;;14.13;100.00
54822;BME280;41299;43.546;16.426;2022-10-16T06:22:45;102282.78;;;14.18;100.00
54822;BME280;41299;43.546;16.426;2022-10-16T06:25:11;102293.25;;;14.23;100.00
54822;BME280;41299;43.546;16.426;2022-10-16T06:27:38;102291.59;;;14.28;100.00
54822;BME280;41299;43.546;16.426;2022-10-16T06:30:04;102293.47;;;14.37;100.00
54822;BME280;41299;43.546;16.426;2022-10-16T06:32:29;102298.78;;;14.44;100.00
54822;BME280;41299;43.546;16.426;2022-10-16T06:34:55;102289.31;;;14.51;100.00
54822;BME280;41299;43.546;16.426;2022-10-16T06:37:20;102295.50;;;14.61;100.00
54822;BME280;41299;43.546;16.426;2022-10-16T06:39:46;102297.34;;;14.67;100.00
54822;BME280;41299;43.546;16.426;2022-10-16T06:42:12;102295.66;;;14.70;100.00
54822;BME280;41299;43.546;16.426;2022-10-16T06:44:37;102296.56;;;14.74;100.00
54822;BME280;41299;43.546;16.426;2022-10-16T06:47:02;102305.34;;;14.81;100.00
54822;BME280;41299;43.546;16.426;2022-10-16T06:49:28;102303.72;;;14.88;100.00
54822;BME280;41299;43.546;16.426;2022-10-16T06:51:53;102308.13;;;14.95;100.00
54822;BME280;41299;43.546;16.426;2022-10-16T06:54:18;102309.91;;;15.01;100.00
54822;BME280;41299;43.546;16.426;2022-10-16T06:56:44;102305.63;;;15.06;100.00
54822;BME280;41299;43.546;16.426;2022-10-16T06:59:09;102299.63;;;15.10;100.00
54822;BME280;41299;43.546;16.426;2022-10-16T07:01:35;102298.78;;;15.12;100.00
54822;BME280;41299;43.546;16.426;2022-10-16T07:04:00;102301.47;;;15.19;100.00
54822;BME280;41299;43.546;16.426;2022-10-16T07:06:26;102305.84;;;15.23;100.00
54822;BME280;41299;43.546;16.426;2022-10-16T07:08:52;102310.22;;;15.29;100.00
54822;BME280;41299;43.546;16.426;2022-10-16T07:11:18;102303.34;;;15.34;100.00
54822;BME280;41299;43.546;16.426;2022-10-16T07:13:44;102300.81;;;15.40;100.00
54822;BME280;41299;43.546;16.426;2022-10-16T07:16:14;102301.75;;;15.45;100.00
54822;BME280;41299;43.546;16.426;2022-10-16T07:18:40;102302.69;;;15.52;100.00
54822;BME280;41299;43.546;16.426;2022-10-16T07:23:30;102317.56;;;15.67;100.00
54822;BME280;41299;43.546;16.426;2022-10-16T07:25:56;102317.66;;;15.76;100.00
54822;BME280;41299;43.546;16.426;2022-10-16T07:28:21;102316.81;;;15.79;100.00
54822;BME280;41299;43.546;16.426;2022-10-16T07:30:47;102320.34;;;15.84;100.00
54822;BME280;41299;43.546;16.426;2022-10-16T07:33:12;102313.44;;;15.88;100.00
54822;BME280;41299;43.546;16.426;2022-10-16T07:35:37;102317.84;;;15.95;100.00
54822;BME280;41299;43.546;16.426;2022-10-16T07:38:02;102317.03;;;16.02;100.00
54822;BME280;41299;43.546;16.426;2022-10-16T07:40:28;102319.69;;;16.09;100.00
54822;BME280;41299;43.546;16.426;2022-10-16T07:42:53;102318.88;;;16.14;100.00
54822;BME280;41299;43.546;16.426;2022-10-16T07:45:18;102320.63;;;16.18;100.00
54822;BME280;41299;43.546;16.426;2022-10-16T07:47:43;102330.22;;;16.24;100.00
54822;BME280;41299;43.546;16.426;2022-10-16T07:50:09;102336.31;;;16.28;100.00
54822;BME280;41299;43.546;16.426;2022-10-16T07:52:34;102332.00;;;16.31;100.00
54822;BME280;41299;43.546;16.426;2022-10-16T07:54:59;102339.88;;;16.39;100.00
54822;BME280;41299;43.546;16.426;2022-10-16T07:57:24;102332.97;;;16.44;100.00
54822;BME280;41299;43.546;16.426;2022-10-16T07:59:50;102331.25;;;16.53;100.00
54822;BME280;41299;43.546;16.426;2022-10-16T08:02:15;102330.44;;;16.58;100.00
54822;BME280;41299;43.546;16.426;2022-10-16T08:04:40;102332.22;;;16.66;100.00
54822;BME280;41299;43.546;16.426;2022-10-16T08:07:06;102323.59;;;16.76;100.00
54822;BME280;41299;43.546;16.426;2022-10-16T08:09:32;102328.84;;;16.85;100.00
54822;BME280;41299;43.546;16.426;2022-10-16T08:11:57;102339.31;;;16.93;100.00
54822;BME280;41299;43.546;16.426;2022-10-16T08:14:23;102337.66;;;17.03;100.00
54822;BME280;41299;43.546;16.426;2022-10-16T08:16:48;102332.44;;;17.12;100.00
54822;BME280;41299;43.546;16.426;2022-10-16T08:19:13;102330.75;;;17.18;100.00
54822;BME280;41299;43.546;16.426;2022-10-16T08:21:40;102325.53;;;17.24;100.00
54822;BME280;41299;43.546;16.426;2022-10-16T08:24:05;102319.50;;;17.34;100.00
54822;BME280;41299;43.546;16.426;2022-10-16T08:26:31;102322.13;;;17.42;100.00
54822;BME280;41299;43.546;16.426;2022-10-16T08:28:56;102327.34;;;17.50;100.00
54822;BME280;41299;43.546;16.426;2022-10-16T08:31:21;102335.22;;;17.59;100.00
54822;BME280;41299;43.546;16.426;2022-10-16T08:33:46;102325.66;;;17.74;100.00
54822;BME280;41299;43.546;16.426;2022-10-16T08:36:12;102329.13;;;17.85;100.00
54822;BME280;41299;43.546;16.426;2022-10-16T08:38:38;102329.13;;;17.91;100.00
54822;BME280;41299;43.546;16.426;2022-10-16T08:41:13;102330.03;;;17.98;100.00
54822;BME280;41299;43.546;16.426;2022-10-16T08:44:00;102325.69;;;18.14;100.00
54822;BME280;41299;43.546;16.426;2022-10-16T08:49:11;102327.44;;;18.28;100.00
54822;BME280;41299;43.546;16.426;2022-10-16T08:51:38;102324.78;;;18.36;100.00
54822;BME280;41299;43.546;16.426;2022-10-16T08:54:04;102329.16;;;18.43;100.00
54822;BME280;41299;43.546;16.426;2022-10-16T08:56:30;102329.13;;;18.51;100.00
54822;BME280;41299;43.546;16.426;2022-10-16T08:58:57;102330.84;;;18.56;100.00
54822;BME280;41299;43.546;16.426;2022-10-16T09:01:22;102325.63;;;18.59;100.00
54822;BME280;41299;43.546;16.426;2022-10-16T09:17:03;102315.91;;;18.94;100.00
54822;BME280;41299;43.546;16.426;2022-10-16T09:19:37;102316.75;;;19.03;100.00
54822;BME280;41299;43.546;16.426;2022-10-16T09:22:13;102307.16;;;19.11;100.00
54822;BME280;41299;43.546;16.426;2022-10-16T09:24:39;102309.72;;;19.17;100.00
54822;BME280;41299;43.546;16.426;2022-10-16T09:27:07;102318.41;;;19.24;100.00
54822;BME280;41299;43.546;16.426;2022-10-16T09:29:33;102322.72;;;19.31;100.00
54822;BME280;41299;43.546;16.426;2022-10-16T09:31:58;102324.44;;;19.37;100.00
54822;BME280;41299;43.546;16.426;2022-10-16T09:34:36;102329.66;;;19.43;100.00
54822;BME280;41299;43.546;16.426;2022-10-16T09:37:05;102331.38;;;19.41;100.00
54822;BME280;41299;43.546;16.426;2022-10-16T09:42:14;102337.41;;;19.52;100.00
54822;BME280;41299;43.546;16.426;2022-10-16T09:44:40;102340.88;;;19.58;100.00
54822;BME280;41299;43.546;16.426;2022-10-16T09:47:13;102346.09;;;19.58;100.00
54822;BME280;41299;43.546;16.426;2022-10-16T09:49:49;102342.59;;;19.65;100.00
54822;BME280;41299;43.546;16.426;2022-10-16T09:52:15;102343.38;;;19.73;100.00
54822;BME280;41299;43.546;16.426;2022-10-16T09:54:54;102343.34;;;19.79;100.00
54822;BME280;41299;43.546;16.426;2022-10-16T09:57:20;102337.22;;;19.84;100.00
54822;BME280;41299;43.546;16.426;2022-10-16T09:59:50;102339.78;;;19.90;100.00
54822;BME280;41299;43.546;16.426;2022-10-16T10:02:16;102333.63;;;19.94;100.00
54822;BME280;41299;43.546;16.426;2022-10-16T10:04:46;102327.53;;;19.97;100.00
54822;BME280;41299;43.546;16.426;2022-10-16T10:07:17;102334.50;;;19.98;100.00
54822;BME280;41299;43.546;16.426;2022-10-16T10:09:44;102336.19;;;20.03;100.00
54822;BME280;41299;43.546;16.426;2022-10-16T10:14:47;102331.84;;;20.02;100.00
54822;BME280;41299;43.546;16.426;2022-10-16T10:17:17;102332.63;;;20.12;100.00
54822;BME280;41299;43.546;16.426;2022-10-16T10:19:46;102329.09;;;20.16;100.00
54822;BME280;41299;43.546;16.426;2022-10-16T10:22:54;102333.44;;;20.20;100.00
54822;BME280;41299;43.546;16.426;2022-10-16T10:32:50;102320.88;;;20.52;100.00
54822;BME280;41299;43.546;16.426;2022-10-16T10:35:32;102312.94;;;20.58;100.00
54822;BME280;41299;43.546;16.426;2022-10-16T10:40:58;102308.47;;;20.67;100.00
54822;BME280;41299;43.546;16.426;2022-10-16T10:46:03;102306.66;;;20.75;100.00
54822;BME280;41299;43.546;16.426;2022-10-16T10:54:15;102296.94;;;20.85;100.00
54822;BME280;41299;43.546;16.426;2022-10-16T11:07:43;102281.75;;;21.10;100.00
54822;BME280;41299;43.546;16.426;2022-10-16T11:10:49;102275.59;;;21.11;100.00
54822;BME280;41299;43.546;16.426;2022-10-16T11:15:39;102274.66;;;21.17;100.00
54822;BME280;41299;43.546;16.426;2022-10-16T11:20:46;102277.13;;;21.26;100.00
54822;BME280;41299;43.546;16.426;2022-10-16T11:23:24;102276.31;;;21.23;100.00
54822;BME280;41299;43.546;16.426;2022-10-16T11:25:51;102274.47;;;21.28;100.00
54822;BME280;41299;43.546;16.426;2022-10-16T11:33:25;102261.19;;;21.39;100.00
54822;BME280;41299;43.546;16.426;2022-10-16T11:40:43;102253.94;;;21.57;100.00
54822;BME280;41299;43.546;16.426;2022-10-16T11:43:14;102258.19;;;21.62;100.00
54822;BME280;41299;43.546;16.426;2022-10-16T11:45:44;102255.66;;;21.59;100.00
54822;BME280;41299;43.546;16.426;2022-10-16T11:48:20;102250.22;;;21.67;100.00
54822;BME280;41299;43.546;16.426;2022-10-16T11:50:56;102251.94;;;21.73;100.00
54822;BME280;41299;43.546;16.426;2022-10-16T11:53:34;102254.50;;;21.76;100.00
54822;BME280;41299;43.546;16.426;2022-10-16T11:56:04;102245.63;;;21.83;100.00
54822;BME280;41299;43.546;16.426;2022-10-16T12:01:46;102254.22;;;21.91;100.00
54822;BME280;41299;43.546;16.426;2022-10-16T12:03:46;102243.78;;;21.88;100.00
54822;BME280;41299;43.546;16.426;2022-10-16T12:06:31;102246.44;;;21.88;100.00
54822;BME280;41299;43.546;16.426;2022-10-16T12:09:01;102242.81;;;21.92;100.00
54822;BME280;41299;43.546;16.426;2022-10-16T12:11:37;102246.22;;;21.99;100.00
54822;BME280;41299;43.546;16.426;2022-10-16T12:14:16;102233.84;;;22.06;100.00
54822;BME280;41299;43.546;16.426;2022-10-16T12:16:55;102239.88;;;22.11;100.00
54822;BME280;41299;43.546;16.426;2022-10-16T12:19:22;102243.31;;;22.13;100.00
54822;BME280;41299;43.546;16.426;2022-10-16T12:21:47;102242.50;;;22.11;100.00
54822;BME280;41299;43.546;16.426;2022-10-16T12:26:48;102228.25;;;22.22;100.00
54822;BME280;41299;43.546;16.426;2022-10-16T12:31:56;102225.59;;;22.25;100.00
54822;BME280;41299;43.546;16.426;2022-10-16T12:37:09;102228.91;;;22.33;100.00
54822;BME280;41299;43.546;16.426;2022-10-16T12:39:36;102231.59;;;22.31;100.00
54822;BME280;41299;43.546;16.426;2022-10-16T12:42:05;102228.88;;;22.36;100.00
54822;BME280;41299;43.546;16.426;2022-10-16T12:44:31;102227.19;;;22.32;100.00
54822;BME280;41299;43.546;16.426;2022-10-16T12:46:57;102227.16;;;22.33;100.00
54822;BME280;41299;43.546;16.426;2022-10-16T12:49:29;102225.34;;;22.37;100.00
54822;BME280;41299;43.546;16.426;2022-10-16T12:51:55;102227.00;;;22.41;100.00
54822;BME280;41299;43.546;16.426;2022-10-16T12:54:37;102238.44;;;22.40;100.00
54822;BME280;41299;43.546;16.426;2022-10-16T13:04:30;102236.41;;;22.53;100.00
54822;BME280;41299;43.546;16.426;2022-10-16T13:09:52;102227.81;;;22.45;100.00
54822;BME280;41299;43.546;16.426;2022-10-16T13:12:25;102233.88;;;22.49;100.00
54822;BME280;41299;43.546;16.426;2022-10-16T13:15:01;102231.22;;;22.49;100.00
54822;BME280;41299;43.546;16.426;2022-10-16T13:22:46;102229.63;;;22.43;100.00
54822;BME280;41299;43.546;16.426;2022-10-16T13:32:34;102243.75;;;22.36;100.00
54822;BME280;41299;43.546;16.426;2022-10-16T13:34:59;102244.63;;;22.36;100.00
54822;BME280;41299;43.546;16.426;2022-10-16T13:37:26;102248.16;;;22.35;100.00
54822;BME280;41299;43.546;16.426;2022-10-16T13:40:01;102245.69;;;22.27;100.00
54822;BME280;41299;43.546;16.426;2022-10-16T13:42:27;102246.44;;;22.34;100.00
54822;BME280;41299;43.546;16.426;2022-10-16T13:44:53;102239.44;;;22.33;100.00
54822;BME280;41299;43.546;16.426;2022-10-16T13:47:26;102243.09;;;22.26;100.00
54822;BME280;41299;43.546;16.426;2022-10-16T13:52:26;102244.81;;;22.27;100.00
54822;BME280;41299;43.546;16.426;2022-10-16T13:54:51;102249.25;;;22.25;100.00
54822;BME280;41299;43.546;16.426;2022-10-16T13:57:17;102257.16;;;22.22;100.00
54822;BME280;41299;43.546;16.426;2022-10-16T13:59:42;102252.97;;;22.13;100.00
54822;BME280;41299;43.546;16.426;2022-10-16T14:04:52;102249.56;;;22.07;100.00
54822;BME280;41299;43.546;16.426;2022-10-16T14:07:20;102256.63;;;22.04;100.00
54822;BME280;41299;43.546;16.426;2022-10-16T14:09:48;102257.41;;;22.09;100.00
54822;BME280;41299;43.546;16.426;2022-10-16T14:12:15;102253.16;;;22.02;100.00
54822;BME280;41299;43.546;16.426;2022-10-16T14:14:41;102251.63;;;21.90;100.00
54822;BME280;41299;43.546;16.426;2022-10-16T14:17:29;102249.97;;;21.86;100.00
54822;BME280;41299;43.546;16.426;2022-10-16T14:19:54;102246.56;;;21.80;100.00
54822;BME280;41299;43.546;16.426;2022-10-16T14:25:00;102247.69;;;21.62;100.00
54822;BME280;41299;43.546;16.426;2022-10-16T14:27:28;102250.22;;;21.69;100.00
54822;BME280;41299;43.546;16.426;2022-10-16T14:32:53;102258.41;;;21.50;100.00
54822;BME280;41299;43.546;16.426;2022-10-16T14:35:22;102261.88;;;21.52;100.00
54822;BME280;41299;43.546;16.426;2022-10-16T14:37:50;102268.94;;;21.48;100.00
54822;BME280;41299;43.546;16.426;2022-10-16T14:40:16;102270.63;;;21.51;100.00
54822;BME280;41299;43.546;16.426;2022-10-16T14:42:43;102267.13;;;21.52;100.00